createdAt,value
2022-09-18T00:01:39.691Z,2.60
2022-09-18T00:04:10.529Z,2.90
2022-09-18T00:09:14.522Z,2.70
2022-09-18T00:11:46.323Z,2.50
2022-09-18T00:14:17.233Z,2.80
2022-09-18T00:16:45.352Z,2.80
2022-09-18T00:19:14.022Z,2.70
2022-09-18T00:21:44.642Z,2.20
2022-09-18T00:24:13.585Z,2.50
2022-09-18T00:26:41.504Z,2.40
2022-09-18T00:29:11.026Z,2.70
2022-09-18T00:31:39.475Z,2.60
2022-09-18T00:34:11.838Z,2.70
2022-09-18T00:36:40.153Z,2.50
2022-09-18T00:39:08.806Z,2.70
2022-09-18T00:41:40.592Z,2.70
2022-09-18T00:44:33.147Z,2.60
2022-09-18T00:47:09.776Z,2.50
2022-09-18T00:49:59.087Z,2.40
2022-09-18T00:52:32.954Z,2.50
2022-09-18T00:55:08.890Z,2.60
2022-09-18T00:57:41.731Z,2.90
2022-09-18T01:00:13.039Z,2.50
2022-09-18T01:02:44.940Z,2.80
2022-09-18T01:05:16.500Z,3.40
2022-09-18T01:08:07.912Z,2.70
2022-09-18T01:11:04.657Z,2.80
2022-09-18T01:13:51.876Z,2.70
2022-09-18T01:16:45.096Z,2.60
2022-09-18T01:19:47.241Z,2.30
2022-09-18T01:22:18.205Z,2.40
2022-09-18T01:27:24.690Z,1.90
2022-09-18T01:30:04.864Z,2.10
2022-09-18T01:32:42.990Z,2.10
2022-09-18T01:35:40.650Z,2.10
2022-09-18T01:38:22.978Z,2.10
2022-09-18T01:43:24.441Z,2.40
2022-09-18T01:48:32.322Z,2.00
2022-09-18T01:51:14.522Z,2.50
2022-09-18T01:53:46.916Z,1.90
2022-09-18T01:56:22.708Z,2.10
2022-09-18T01:58:55.527Z,2.10
2022-09-18T02:01:29.804Z,2.10
2022-09-18T02:04:04.733Z,2.40
2022-09-18T02:06:41.989Z,1.90
2022-09-18T02:09:12.026Z,1.50
2022-09-18T02:11:45.502Z,1.20
2022-09-18T02:14:25.859Z,1.20
2022-09-18T02:17:31.189Z,1.20
2022-09-18T02:20:10.300Z,1.30
2022-09-18T02:22:40.964Z,1.40
2022-09-18T02:25:12.308Z,1.50
2022-09-18T02:27:42.520Z,1.90
2022-09-18T02:30:11.936Z,1.70
2022-09-18T02:32:41.063Z,1.70
2022-09-18T02:35:11.161Z,2.00
2022-09-18T02:37:50.308Z,2.00
2022-09-18T02:40:42.875Z,1.90
2022-09-18T02:43:57.554Z,2.20
2022-09-18T02:46:45.126Z,1.70
2022-09-18T02:49:42.355Z,1.90
2022-09-18T02:52:20.237Z,1.50
2022-09-18T02:54:56.233Z,1.70
2022-09-18T02:57:37.901Z,1.90
2022-09-18T03:00:12.822Z,1.90
2022-09-18T03:02:41.886Z,2.00
2022-09-18T03:05:11.027Z,2.10
2022-09-18T03:07:49.641Z,2.30
2022-09-18T03:10:17.772Z,2.20
2022-09-18T03:12:45.700Z,2.00
2022-09-18T03:15:13.720Z,2.10
2022-09-18T03:17:41.946Z,2.10
2022-09-18T03:20:10.037Z,2.20
2022-09-18T03:22:38.029Z,2.30
2022-09-18T03:25:06.873Z,2.60
2022-09-18T03:27:35.148Z,2.90
2022-09-18T03:30:03.835Z,2.80
2022-09-18T03:32:33.735Z,2.80
2022-09-18T03:35:01.611Z,2.80
2022-09-18T03:37:29.993Z,2.80
2022-09-18T03:39:59.563Z,2.60
2022-09-18T03:42:27.675Z,2.80
2022-09-18T03:44:57.688Z,3.00
2022-09-18T03:47:31.826Z,3.00
2022-09-18T03:50:02.660Z,2.70
2022-09-18T03:52:34.571Z,3.00
2022-09-18T03:55:11.886Z,2.60
2022-09-18T03:57:58.441Z,2.30
2022-09-18T04:00:46.834Z,2.40
2022-09-18T04:03:18.667Z,2.40
2022-09-18T04:05:51.000Z,2.40
2022-09-18T04:08:41.397Z,2.40
2022-09-18T04:11:26.149Z,2.30
2022-09-18T04:13:54.220Z,2.40
2022-09-18T04:16:23.045Z,2.30
2022-09-18T04:18:54.784Z,2.30
2022-09-18T04:21:23.228Z,2.10
2022-09-18T04:23:52.188Z,2.50
2022-09-18T04:26:20.273Z,2.30
2022-09-18T04:28:53.060Z,2.20
2022-09-18T04:31:22.646Z,2.20
2022-09-18T04:33:50.878Z,1.90
2022-09-18T04:36:19.630Z,2.20
2022-09-18T04:38:48.122Z,2.10
2022-09-18T04:41:16.124Z,2.40
2022-09-18T04:43:44.759Z,2.70
2022-09-18T04:46:13.220Z,2.60
2022-09-18T04:48:41.142Z,2.40
2022-09-18T04:51:09.379Z,2.70
2022-09-18T04:53:47.408Z,2.50
2022-09-18T04:56:15.469Z,2.80
2022-09-18T04:58:46.645Z,2.10
2022-09-18T05:01:15.059Z,2.20
2022-09-18T05:03:43.406Z,2.20
2022-09-18T05:06:16.657Z,2.30
2022-09-18T05:08:44.483Z,2.10
2022-09-18T05:11:12.411Z,2.10
2022-09-18T05:13:40.913Z,2.10
2022-09-18T05:16:14.135Z,2.40
2022-09-18T05:18:42.689Z,2.20
2022-09-18T05:21:10.720Z,1.90
2022-09-18T05:23:38.583Z,2.10
2022-09-18T05:26:07.009Z,2.10
2022-09-18T05:28:34.976Z,2.10
2022-09-18T05:31:03.414Z,2.10
2022-09-18T05:33:41.849Z,1.80
2022-09-18T05:36:12.185Z,1.90
2022-09-18T05:38:40.505Z,2.00
2022-09-18T05:41:09.821Z,2.10
2022-09-18T05:43:38.609Z,1.70
2022-09-18T05:46:12.088Z,1.90
2022-09-18T05:48:51.585Z,1.90
2022-09-18T05:51:20.250Z,1.90
2022-09-18T05:53:48.629Z,1.70
2022-09-18T05:56:42.706Z,1.80
2022-09-18T05:59:12.305Z,2.00
2022-09-18T06:01:44.848Z,1.70
2022-09-18T06:04:22.275Z,2.10
2022-09-18T06:06:56.974Z,2.30
2022-09-18T06:09:26.191Z,3.00
2022-09-18T06:11:54.159Z,2.00
2022-09-18T06:14:23.461Z,2.30
2022-09-18T06:16:51.856Z,2.30
2022-09-18T06:19:19.805Z,2.20
2022-09-18T06:21:49.308Z,2.70
2022-09-18T06:24:19.271Z,2.30
2022-09-18T06:26:57.936Z,2.10
2022-09-18T06:29:26.728Z,2.30
2022-09-18T06:31:59.559Z,2.20
2022-09-18T06:34:29.893Z,2.70
2022-09-18T06:37:02.109Z,2.40
2022-09-18T06:39:50.205Z,2.20
2022-09-18T06:42:27.224Z,2.20
2022-09-18T06:45:21.100Z,2.10
2022-09-18T06:47:54.600Z,2.70
2022-09-18T06:50:25.115Z,2.10
2022-09-18T06:52:53.094Z,2.40
2022-09-18T06:55:21.890Z,2.40
2022-09-18T06:57:56.720Z,2.40
2022-09-18T07:00:26.627Z,2.40
2022-09-18T07:02:59.644Z,2.90
2022-09-18T07:05:46.695Z,2.60
2022-09-18T07:08:25.391Z,3.40
2022-09-18T07:11:01.398Z,2.40
2022-09-18T07:13:33.767Z,2.50
2022-09-18T07:16:01.937Z,2.00
2022-09-18T07:18:30.252Z,2.10
2022-09-18T07:21:01.833Z,2.30
2022-09-18T07:23:34.941Z,2.30
2022-09-18T07:26:05.304Z,2.10
2022-09-18T07:28:34.185Z,2.50
2022-09-18T07:31:12.171Z,2.40
2022-09-18T07:33:40.878Z,2.30
2022-09-18T07:36:09.567Z,2.60
2022-09-18T07:38:38.141Z,2.50
2022-09-18T07:41:06.848Z,1.80
2022-09-18T07:43:35.821Z,2.10
2022-09-18T07:46:04.608Z,2.20
2022-09-18T07:48:35.441Z,2.10
2022-09-18T07:51:10.579Z,2.60
2022-09-18T07:53:39.354Z,2.10
2022-09-18T07:56:10.254Z,2.00
2022-09-18T07:58:39.310Z,2.20
2022-09-18T08:01:25.863Z,2.70
2022-09-18T08:03:57.045Z,2.40
2022-09-18T08:06:37.304Z,2.60
2022-09-18T08:09:17.009Z,2.60
2022-09-18T08:12:08.547Z,2.20
2022-09-18T08:14:52.755Z,2.00
2022-09-18T08:17:43.560Z,1.90
2022-09-18T08:20:29.853Z,2.10
2022-09-18T08:23:18.068Z,1.80
2022-09-18T08:25:47.674Z,2.40
2022-09-18T08:28:16.060Z,2.40
2022-09-18T08:30:50.580Z,2.30
2022-09-18T08:33:19.561Z,2.10
2022-09-18T08:35:47.634Z,3.20
2022-09-18T08:38:26.048Z,2.70
2022-09-18T08:41:43.000Z,3.10
2022-09-18T08:44:24.383Z,2.20
2022-09-18T08:47:10.546Z,2.10
2022-09-18T08:49:52.257Z,1.90
2022-09-18T08:52:25.817Z,2.20
2022-09-18T08:55:06.291Z,2.00
2022-09-18T08:58:00.093Z,1.80
2022-09-18T09:01:01.748Z,2.10
2022-09-18T09:03:59.032Z,2.20
2022-09-18T09:06:28.459Z,2.00
2022-09-18T09:09:21.493Z,1.90
2022-09-18T09:12:11.012Z,2.10
2022-09-18T09:15:11.124Z,1.50
2022-09-18T09:18:05.055Z,1.80
2022-09-18T09:20:42.037Z,1.60
2022-09-18T09:23:26.143Z,1.80
2022-09-18T09:26:01.463Z,1.90
2022-09-18T09:28:47.508Z,1.60
2022-09-18T09:31:34.139Z,1.60
2022-09-18T09:34:41.009Z,1.60
2022-09-18T09:37:43.528Z,2.00
2022-09-18T09:40:23.311Z,1.50
2022-09-18T09:43:26.997Z,1.40
2022-09-18T09:46:02.648Z,1.50
2022-09-18T09:48:35.422Z,1.40
2022-09-18T09:51:41.549Z,1.30
2022-09-18T09:54:12.481Z,1.50
2022-09-18T09:56:45.592Z,2.00
2022-09-18T09:59:39.554Z,1.50
2022-09-18T10:02:51.776Z,1.40
2022-09-18T10:05:28.058Z,1.30
2022-09-18T10:07:58.288Z,1.50
2022-09-18T10:10:59.016Z,1.10
2022-09-18T10:13:49.307Z,1.70
2022-09-18T10:16:25.817Z,1.50
2022-09-18T10:18:54.664Z,1.20
2022-09-18T10:21:27.588Z,1.50
2022-09-18T10:24:06.750Z,1.60
2022-09-18T10:26:51.978Z,1.30
2022-09-18T10:29:35.060Z,1.30
2022-09-18T10:32:07.111Z,1.40
2022-09-18T10:34:46.172Z,1.60
2022-09-18T10:37:37.874Z,1.50
2022-09-18T10:40:30.987Z,1.30
2022-09-18T10:43:01.083Z,1.30
2022-09-18T10:45:37.004Z,0.90
2022-09-18T10:48:26.184Z,1.00
2022-09-18T10:51:02.867Z,0.90
2022-09-18T10:53:43.436Z,1.40
2022-09-18T10:56:27.091Z,1.10
2022-09-18T10:58:57.453Z,1.00
2022-09-18T11:01:25.897Z,1.00
2022-09-18T11:04:05.834Z,0.90
2022-09-18T11:06:38.634Z,1.10
2022-09-18T11:09:39.317Z,1.10
2022-09-18T11:12:24.901Z,1.10
2022-09-18T11:15:04.485Z,1.10
2022-09-18T11:17:40.017Z,1.20
2022-09-18T11:20:20.831Z,1.10
2022-09-18T11:22:56.378Z,1.60
2022-09-18T11:25:29.487Z,1.20
2022-09-18T11:28:02.706Z,0.90
2022-09-18T11:30:38.809Z,1.40
2022-09-18T11:33:41.133Z,1.10
2022-09-18T11:36:13.057Z,1.70
2022-09-18T11:38:44.909Z,1.30
2022-09-18T11:41:22.484Z,1.10
2022-09-18T11:44:02.313Z,0.70
2022-09-18T11:47:11.525Z,1.40
2022-09-18T11:49:45.436Z,1.20
2022-09-18T11:52:36.724Z,1.00
2022-09-18T11:55:26.523Z,1.00
2022-09-18T11:58:01.723Z,0.80
2022-09-18T12:00:37.627Z,0.90
2022-09-18T12:03:19.302Z,0.80
2022-09-18T12:06:08.993Z,1.30
2022-09-18T12:09:15.648Z,1.00
2022-09-18T12:11:56.683Z,0.90
2022-09-18T12:14:47.211Z,0.80
2022-09-18T12:17:40.382Z,1.30
2022-09-18T12:20:18.815Z,1.40
2022-09-18T12:22:56.847Z,1.70
2022-09-18T12:25:50.727Z,1.40
2022-09-18T12:29:13.122Z,1.50
2022-09-18T12:32:01.791Z,0.80
2022-09-18T12:34:56.202Z,1.00
2022-09-18T12:37:36.122Z,0.80
2022-09-18T12:40:31.863Z,1.10
2022-09-18T12:43:41.332Z,1.10
2022-09-18T12:46:41.685Z,1.10
2022-09-18T12:49:46.922Z,1.30
2022-09-18T12:53:00.528Z,1.00
2022-09-18T12:55:59.671Z,1.90
2022-09-18T12:58:58.949Z,0.80
2022-09-18T13:02:22.668Z,1.30
2022-09-18T13:04:56.786Z,1.00
2022-09-18T13:07:30.919Z,0.90
2022-09-18T13:10:24.847Z,0.90
2022-09-18T13:12:59.445Z,1.20
2022-09-18T13:15:33.285Z,0.80
2022-09-18T13:18:23.743Z,1.10
2022-09-18T13:20:54.326Z,1.20
2022-09-18T13:23:35.395Z,1.00
2022-09-18T13:26:06.845Z,0.90
2022-09-18T13:28:35.173Z,1.10
2022-09-18T13:31:15.657Z,1.70
2022-09-18T13:34:04.656Z,1.30
2022-09-18T13:36:34.078Z,0.80
2022-09-18T13:39:17.727Z,1.10
2022-09-18T13:41:50.898Z,1.00
2022-09-18T13:44:31.635Z,0.90
2022-09-18T13:47:09.975Z,1.10
2022-09-18T13:49:57.442Z,1.00
2022-09-18T13:52:34.439Z,1.00
2022-09-18T13:55:31.326Z,1.00
2022-09-18T13:58:33.871Z,1.70
2022-09-18T14:01:07.638Z,1.10
2022-09-18T14:03:40.305Z,1.10
2022-09-18T14:06:36.674Z,1.00
2022-09-18T14:09:26.665Z,1.00
2022-09-18T14:11:54.843Z,1.00
2022-09-18T14:14:26.260Z,1.30
2022-09-18T14:16:56.289Z,1.30
2022-09-18T14:19:32.642Z,1.10
2022-09-18T14:22:01.554Z,1.10
2022-09-18T14:24:55.209Z,1.30
2022-09-18T14:27:57.159Z,1.10
2022-09-18T14:30:30.317Z,1.60
2022-09-18T14:33:03.630Z,1.30
2022-09-18T14:35:42.064Z,1.20
2022-09-18T14:38:31.617Z,1.50
2022-09-18T14:41:19.623Z,1.30
2022-09-18T14:43:56.088Z,1.70
2022-09-18T14:46:26.015Z,1.50
2022-09-18T14:48:55.114Z,1.50
2022-09-18T14:51:25.955Z,1.40
2022-09-18T14:56:33.286Z,1.50
2022-09-18T14:59:05.496Z,1.30
2022-09-18T15:01:36.711Z,1.50
2022-09-18T15:04:12.769Z,1.30
2022-09-18T15:06:46.393Z,1.30
2022-09-18T15:09:20.876Z,1.40
2022-09-18T15:12:02.219Z,1.20
2022-09-18T15:14:44.181Z,1.00
2022-09-18T15:17:23.809Z,1.20
2022-09-18T15:20:22.054Z,1.20
2022-09-18T15:22:51.466Z,0.90
2022-09-18T15:25:34.696Z,0.90
2022-09-18T15:28:07.007Z,1.20
2022-09-18T15:30:40.463Z,1.10
2022-09-18T15:33:19.724Z,1.00
2022-09-18T15:35:52.036Z,1.20
2022-09-18T15:38:29.686Z,1.40
2022-09-18T15:40:57.769Z,1.40
2022-09-18T15:43:28.650Z,1.50
2022-09-18T15:48:39.648Z,1.00
2022-09-18T15:51:22.463Z,1.80
2022-09-18T15:54:05.665Z,1.40
2022-09-18T15:56:35.381Z,1.30
2022-09-18T15:59:33.156Z,1.50
2022-09-18T16:02:08.338Z,1.50
2022-09-18T16:04:36.679Z,1.40
2022-09-18T16:07:18.570Z,1.60
2022-09-18T16:09:48.226Z,1.60
2022-09-18T16:12:31.464Z,2.20
2022-09-18T16:15:19.080Z,2.40
2022-09-18T16:17:46.998Z,2.00
2022-09-18T16:20:26.232Z,1.40
2022-09-18T16:23:03.019Z,1.60
2022-09-18T16:25:32.261Z,1.70
2022-09-18T16:28:02.093Z,2.10
2022-09-18T16:30:30.007Z,1.80
2022-09-18T16:33:13.721Z,1.60
2022-09-18T16:35:41.690Z,1.40
2022-09-18T16:38:09.763Z,2.00
2022-09-18T16:40:37.877Z,1.80
2022-09-18T16:43:05.766Z,1.30
2022-09-18T16:45:33.772Z,1.90
2022-09-18T16:48:01.698Z,2.40
2022-09-18T16:50:29.715Z,2.90
2022-09-18T16:53:01.421Z,2.40
2022-09-18T16:55:31.071Z,3.00
2022-09-18T16:57:59.653Z,3.00
2022-09-18T17:00:27.624Z,3.10
2022-09-18T17:02:57.815Z,3.20
2022-09-18T17:05:25.903Z,3.30
2022-09-18T17:07:53.873Z,3.30
2022-09-18T17:10:21.736Z,3.40
2022-09-18T17:12:49.647Z,3.30
2022-09-18T17:15:17.602Z,2.90
2022-09-18T17:17:45.753Z,2.60
2022-09-18T17:20:17.881Z,2.60
2022-09-18T17:22:46.565Z,2.00
2022-09-18T17:25:15.160Z,2.00
2022-09-18T17:27:43.825Z,2.30
2022-09-18T17:30:12.763Z,1.70
2022-09-18T17:32:40.765Z,1.80
2022-09-18T17:35:08.889Z,2.00
2022-09-18T17:37:36.865Z,3.30
2022-09-18T17:40:05.678Z,3.00
2022-09-18T17:42:34.043Z,3.00
2022-09-18T17:45:02.011Z,1.90
2022-09-18T17:47:29.951Z,3.60
2022-09-18T17:49:58.257Z,2.30
2022-09-18T17:52:26.260Z,1.60
2022-09-18T17:54:54.149Z,1.20
2022-09-18T17:57:22.161Z,1.40
2022-09-18T17:59:50.026Z,2.20
2022-09-18T18:02:18.192Z,2.00
2022-09-18T18:04:46.385Z,1.60
2022-09-18T18:07:14.834Z,1.70
2022-09-18T18:09:42.833Z,2.00
2022-09-18T18:12:11.084Z,1.70
2022-09-18T18:14:38.916Z,1.60
2022-09-18T18:17:07.250Z,1.80
2022-09-18T18:19:35.174Z,1.90
2022-09-18T18:22:03.029Z,1.90
2022-09-18T18:24:31.332Z,1.80
2022-09-18T18:26:59.508Z,1.80
2022-09-18T18:29:27.607Z,2.00
2022-09-18T18:31:55.640Z,1.80
2022-09-18T18:34:25.421Z,1.90
2022-09-18T18:36:53.349Z,1.70
2022-09-18T18:39:21.314Z,1.40
2022-09-18T18:41:49.891Z,1.90
2022-09-18T18:44:18.487Z,1.50
2022-09-18T18:46:46.570Z,1.30
2022-09-18T18:49:15.633Z,1.40
2022-09-18T18:51:47.941Z,1.40
2022-09-18T18:54:18.380Z,1.20
2022-09-18T18:56:47.237Z,1.10
2022-09-18T18:59:17.691Z,1.70
2022-09-18T19:01:47.579Z,1.60
2022-09-18T19:04:19.294Z,1.40
2022-09-18T19:06:49.541Z,1.70
2022-09-18T19:09:28.538Z,1.60
2022-09-18T19:11:57.551Z,1.60
2022-09-18T19:14:31.775Z,1.80
2022-09-18T19:17:00.856Z,1.60
2022-09-18T19:19:29.485Z,1.50
2022-09-18T19:22:00.370Z,1.30
2022-09-18T19:24:28.622Z,1.50
2022-09-18T19:26:57.868Z,1.40
2022-09-18T19:29:25.977Z,1.60
2022-09-18T19:31:53.914Z,1.90
2022-09-18T19:34:22.512Z,1.60
2022-09-18T19:36:52.020Z,1.30
2022-09-18T19:39:22.633Z,1.20
2022-09-18T19:41:59.191Z,1.30
2022-09-18T19:44:38.683Z,1.40
2022-09-18T19:47:19.614Z,1.20
2022-09-18T19:52:18.490Z,1.10
2022-09-18T19:57:15.880Z,1.40
2022-09-18T19:59:44.571Z,0.90
2022-09-18T20:02:20.014Z,1.30
2022-09-18T20:04:48.000Z,1.00
2022-09-18T20:07:15.973Z,1.10
2022-09-18T20:09:43.926Z,1.10
2022-09-18T20:12:12.800Z,1.20
2022-09-18T20:14:40.635Z,1.30
2022-09-18T20:17:09.998Z,1.20
2022-09-18T20:19:37.992Z,1.10
2022-09-18T20:22:07.148Z,1.30
2022-09-18T20:24:35.145Z,1.50
2022-09-18T20:27:03.292Z,1.70
2022-09-18T20:29:31.425Z,1.50
2022-09-18T20:31:59.481Z,2.00
2022-09-18T20:34:27.413Z,1.70
2022-09-18T20:36:55.272Z,1.80
2022-09-18T20:39:23.238Z,1.70
2022-09-18T20:41:51.271Z,1.90
2022-09-18T20:44:19.339Z,2.00
2022-09-18T20:46:47.275Z,1.50
2022-09-18T20:49:17.589Z,1.80
2022-09-18T20:51:46.187Z,1.50
2022-09-18T20:54:15.378Z,1.70
2022-09-18T20:56:44.694Z,1.60
2022-09-18T20:59:31.665Z,1.50
2022-09-18T21:01:59.575Z,1.90
2022-09-18T21:04:27.454Z,1.30
2022-09-18T21:06:58.934Z,1.30
2022-09-18T21:09:28.995Z,1.30
2022-09-18T21:11:57.163Z,1.30
2022-09-18T21:14:27.430Z,1.30
2022-09-18T21:16:56.065Z,1.30
2022-09-18T21:19:26.371Z,1.20
2022-09-18T21:21:54.423Z,1.30
2022-09-18T21:24:22.496Z,1.40
2022-09-18T21:26:50.894Z,1.40
2022-09-18T21:29:27.114Z,1.50
2022-09-18T21:32:02.245Z,1.70
2022-09-18T21:34:33.513Z,1.50
2022-09-18T21:37:08.271Z,1.70
2022-09-18T21:39:37.255Z,1.30
2022-09-18T21:42:07.343Z,1.20
2022-09-18T21:44:37.681Z,0.80
2022-09-18T21:47:08.029Z,1.10
2022-09-18T21:49:35.960Z,0.90
2022-09-18T21:52:07.349Z,2.00
2022-09-18T21:54:35.716Z,1.60
2022-09-18T21:57:04.836Z,1.50
2022-09-18T21:59:36.677Z,1.30
2022-09-18T22:02:05.745Z,1.30
2022-09-18T22:04:34.144Z,1.40
2022-09-18T22:07:02.602Z,1.10
2022-09-18T22:09:34.559Z,1.30
2022-09-18T22:12:03.040Z,1.20
2022-09-18T22:14:33.420Z,1.10
2022-09-18T22:17:03.817Z,1.30
2022-09-18T22:19:33.454Z,1.20
2022-09-18T22:22:01.882Z,1.10
2022-09-18T22:24:30.386Z,1.30
2022-09-18T22:27:02.668Z,1.00
2022-09-18T22:29:32.673Z,1.40
2022-09-18T22:32:01.594Z,1.30
2022-09-18T22:34:32.286Z,1.40
2022-09-18T22:37:01.288Z,1.20
2022-09-18T22:39:29.591Z,1.00
2022-09-18T22:41:58.052Z,1.20
2022-09-18T22:44:26.498Z,1.10
2022-09-18T22:46:54.462Z,0.90
2022-09-18T22:49:24.109Z,1.20
2022-09-18T22:51:52.585Z,1.30
2022-09-18T22:54:27.042Z,1.20
2022-09-18T22:56:56.415Z,1.00
2022-09-18T22:59:27.243Z,0.90
2022-09-18T23:01:59.331Z,1.20
2022-09-18T23:04:29.906Z,1.10
2022-09-18T23:06:59.311Z,1.30
2022-09-18T23:09:28.152Z,1.30
2022-09-18T23:11:57.949Z,1.20
2022-09-18T23:14:28.579Z,1.40
2022-09-18T23:16:58.483Z,1.20
2022-09-18T23:19:31.927Z,1.30
2022-09-18T23:22:00.461Z,1.20
2022-09-18T23:24:28.684Z,1.20
2022-09-18T23:26:58.454Z,1.30
2022-09-18T23:29:28.456Z,1.20
2022-09-18T23:31:59.458Z,1.30
2022-09-18T23:34:30.775Z,1.30
2022-09-18T23:36:59.844Z,1.60
2022-09-18T23:39:30.980Z,1.10
2022-09-18T23:42:01.529Z,1.10
2022-09-18T23:44:31.371Z,1.20
2022-09-18T23:47:00.341Z,1.00
2022-09-18T23:49:29.788Z,1.10
2022-09-18T23:51:59.576Z,1.20
2022-09-18T23:54:30.031Z,1.20
2022-09-18T23:56:58.335Z,1.30
2022-09-18T23:59:27.133Z,1.20
